Terminal Aerodrome Forecast
Issued by NWS Sioux Falls, SD

Home | Current Version | Previous Version | Graphics & Text | Print | Product List | Glossary On
Versions: 1 2 3 4 5 6 7 8 9 10 11 12 13 14 15 16 17 18 19
000
FTUS43 KFSD 251722
TAFFSD
TAF
KFSD 251722Z 2518/2618 05011KT P6SM OVC008
     FM252100 06011KT P6SM OVC012
     FM260200 06006KT P6SM OVC008
     FM260500 07007KT 5SM BR OVC003
     FM261400 04005KT P6SM OVC006=

USA.gov is the U.S. government's official web portal to all federal, state and local government web resources and services.